createdAt,value
2023-04-28T00:00:04.803Z,94986.19
2023-04-28T00:02:31.938Z,94987.56
2023-04-28T00:04:58.744Z,94981.50
2023-04-28T00:07:25.491Z,94972.72
2023-04-28T00:09:52.224Z,94968.94
2023-04-28T00:12:18.810Z,94972.44
2023-04-28T00:14:45.620Z,94963.53
2023-04-28T00:17:12.180Z,94963.78
2023-04-28T00:19:39.020Z,94966.75
2023-04-28T00:22:06.301Z,94961.34
2023-04-28T00:24:33.836Z,94957.28
2023-04-28T00:27:01.484Z,94954.28
2023-04-28T00:29:29.939Z,94962.25
2023-04-28T00:31:56.646Z,94961.81
2023-04-28T00:34:23.392Z,94959.25
2023-04-28T00:36:50.049Z,94958.06
2023-04-28T00:39:18.489Z,94959.03
2023-04-28T00:41:45.209Z,94958.25
2023-04-28T00:44:12.466Z,94961.38
2023-04-28T00:46:39.588Z,94963.53
2023-04-28T00:49:06.567Z,94954.75
2023-04-28T00:51:33.886Z,94955.28
2023-04-28T00:54:01.223Z,94946.25
2023-04-28T00:56:31.007Z,94948.44
2023-04-28T00:58:58.262Z,94946.38
2023-04-28T01:01:25.377Z,94943.81
2023-04-28T01:03:52.722Z,94939.22
2023-04-28T01:06:20.454Z,94935.06
2023-04-28T01:08:50.097Z,94935.59
2023-04-28T01:11:17.879Z,94931.81
2023-04-28T01:14:06.916Z,94925.03
2023-04-28T01:16:38.421Z,94915.59
2023-04-28T01:19:08.455Z,94917.34
2023-04-28T01:21:37.815Z,94912.47
2023-04-28T01:24:17.458Z,94902.06
2023-04-28T01:26:45.504Z,94907.47
2023-04-28T01:29:12.374Z,94904.91
2023-04-28T01:31:39.355Z,94898.69
2023-04-28T01:34:06.049Z,94888.69
2023-04-28T01:36:34.205Z,94885.97
2023-04-28T01:39:02.937Z,94888.41
2023-04-28T01:41:29.582Z,94876.38
2023-04-28T01:43:56.986Z,94881.25
2023-04-28T01:46:25.132Z,94884.09
2023-04-28T01:48:52.034Z,94888.16
2023-04-28T01:51:18.890Z,94889.22
2023-04-28T01:53:45.550Z,94914.22
2023-04-28T01:56:12.649Z,94909.78
2023-04-28T01:58:39.272Z,94918.31
2023-04-28T02:01:07.056Z,94918.84
2023-04-28T02:03:34.163Z,94923.16
2023-04-28T02:06:02.827Z,94937.50
2023-04-28T02:08:29.512Z,94932.59
2023-04-28T02:10:58.087Z,94934.38
2023-04-28T02:13:24.636Z,94926.25
2023-04-28T02:15:53.111Z,94917.34
2023-04-28T02:18:21.030Z,94917.34
2023-04-28T02:20:47.658Z,94902.34
2023-04-28T02:23:14.180Z,94894.75
2023-04-28T02:25:40.882Z,94881.53
2023-04-28T02:28:07.504Z,94888.84
2023-04-28T02:30:34.893Z,94881.38
2023-04-28T02:33:01.562Z,94882.34
2023-04-28T02:35:28.331Z,94876.53
2023-04-28T02:37:55.144Z,94873.16
2023-04-28T02:40:22.100Z,94870.03
2023-04-28T02:42:48.756Z,94872.31
2023-04-28T02:45:15.552Z,94866.13
2023-04-28T02:47:42.251Z,94869.22
2023-04-28T02:50:09.236Z,94871.25
2023-04-28T02:52:35.870Z,94869.38
2023-04-28T02:55:03.891Z,94876.38
2023-04-28T02:57:31.006Z,94870.19
2023-04-28T02:59:57.778Z,94862.34
2023-04-28T03:02:26.768Z,94863.84
2023-04-28T03:04:53.515Z,94862.31
2023-04-28T03:07:20.275Z,94859.75
2023-04-28T03:09:46.862Z,94865.44
2023-04-28T03:12:13.433Z,94868.97
2023-04-28T03:14:40.220Z,94867.84
2023-04-28T03:17:07.540Z,94866.78
2023-04-28T03:19:34.188Z,94852.44
2023-04-28T03:22:00.980Z,94857.44
2023-04-28T03:24:27.662Z,94859.22
2023-04-28T03:26:54.228Z,94850.00
2023-04-28T03:29:21.205Z,94851.22
2023-04-28T03:31:47.921Z,94853.41
2023-04-28T03:34:14.777Z,94859.63
2023-04-28T03:36:41.806Z,94864.50
2023-04-28T03:39:16.487Z,94859.91
2023-04-28T03:41:43.160Z,94859.22
2023-04-28T03:44:32.468Z,94852.97
2023-04-28T03:46:59.136Z,94857.72
2023-04-28T03:49:25.807Z,94848.63
2023-04-28T03:51:52.667Z,94857.16
2023-04-28T03:54:19.907Z,94855.28
2023-04-28T03:56:46.713Z,94851.59
2023-04-28T03:59:13.902Z,94854.06
2023-04-28T04:01:40.625Z,94847.44
2023-04-28T04:04:07.591Z,94845.84
2023-04-28T04:06:34.785Z,94845.72
2023-04-28T04:09:01.928Z,94851.09
2023-04-28T04:11:28.580Z,94858.81
2023-04-28T04:13:55.279Z,94860.69
2023-04-28T04:16:24.229Z,94856.91
2023-04-28T04:18:53.264Z,94858.69
2023-04-28T04:21:23.131Z,94854.09
2023-04-28T04:23:51.258Z,94865.56
2023-04-28T04:26:17.828Z,94863.41
2023-04-28T04:28:44.633Z,94867.84
2023-04-28T04:31:11.299Z,94880.00
2023-04-28T04:33:37.953Z,94878.78
2023-04-28T04:36:06.672Z,94881.63
2023-04-28T04:38:33.502Z,94878.41
2023-04-28T04:41:09.562Z,94879.31
2023-04-28T04:43:36.380Z,94878.78
2023-04-28T04:46:04.108Z,94886.09
2023-04-28T04:48:32.260Z,94876.63
2023-04-28T04:50:58.987Z,94879.47
2023-04-28T04:53:26.244Z,94878.09
2023-04-28T04:55:55.287Z,94890.13
2023-04-28T04:58:22.027Z,94883.00
2023-04-28T05:01:23.879Z,94888.81
2023-04-28T05:03:50.855Z,94878.75
2023-04-28T05:06:17.604Z,94880.78
2023-04-28T05:08:46.696Z,94876.06
2023-04-28T05:11:13.508Z,94885.41
2023-04-28T05:13:40.830Z,94886.63
2023-04-28T05:16:08.116Z,94884.28
2023-04-28T05:18:48.429Z,94885.53
2023-04-28T05:21:15.854Z,94882.25
2023-04-28T05:23:42.529Z,94897.91
2023-04-28T05:26:09.409Z,94916.56
2023-04-28T05:28:36.406Z,94919.66
2023-04-28T05:31:03.107Z,94931.34
2023-04-28T05:33:31.420Z,94910.03
2023-04-28T05:35:58.460Z,94909.59
2023-04-28T05:38:25.807Z,94904.88
2023-04-28T05:40:53.309Z,94910.16
2023-04-28T05:43:20.203Z,94908.19
2023-04-28T05:45:48.392Z,94908.19
2023-04-28T05:48:15.086Z,94899.06
2023-04-28T05:50:41.834Z,94899.00
2023-04-28T05:53:10.140Z,94900.84
2023-04-28T05:55:37.026Z,94892.25
2023-04-28T05:58:04.283Z,94897.84
2023-04-28T06:00:31.512Z,94890.38
2023-04-28T06:03:00.472Z,94900.59
2023-04-28T06:05:27.839Z,94896.47
2023-04-28T06:07:56.164Z,94895.03
2023-04-28T06:10:23.810Z,94889.47
2023-04-28T06:12:50.580Z,94884.63
2023-04-28T06:15:17.159Z,94888.47
2023-04-28T06:17:43.877Z,94889.28
2023-04-28T06:20:13.187Z,94883.31
2023-04-28T06:22:41.383Z,94880.47
2023-04-28T06:25:08.740Z,94876.75
2023-04-28T06:27:42.071Z,94879.25
2023-04-28T06:30:09.301Z,94878.31
2023-04-28T06:32:36.015Z,94875.47
2023-04-28T06:35:02.851Z,94871.34
2023-04-28T06:37:29.556Z,94864.34
2023-04-28T06:39:58.102Z,94867.69
2023-04-28T06:42:26.024Z,94857.78
2023-04-28T06:44:59.944Z,94854.75
2023-04-28T06:47:27.870Z,94845.91
2023-04-28T06:49:54.706Z,94850.50
2023-04-28T06:52:33.449Z,94844.41
2023-04-28T06:55:12.300Z,94834.50
2023-04-28T06:57:39.099Z,94839.06
2023-04-28T07:00:06.466Z,94839.44
2023-04-28T07:02:33.469Z,94847.22
2023-04-28T07:05:00.256Z,94824.66
2023-04-28T07:07:27.003Z,94834.34
2023-04-28T07:09:53.814Z,94828.38
2023-04-28T07:12:22.314Z,94827.72
2023-04-28T07:14:50.643Z,94832.25
2023-04-28T07:17:17.626Z,94835.03
2023-04-28T07:19:44.347Z,94840.00
2023-04-28T07:22:11.194Z,94826.47
2023-04-28T07:24:37.754Z,94826.00
2023-04-28T07:27:04.529Z,94826.34
2023-04-28T07:29:34.102Z,94823.59
2023-04-28T07:32:06.862Z,94824.56
2023-04-28T07:34:35.824Z,94830.38
2023-04-28T07:37:03.658Z,94824.13
2023-04-28T07:39:36.841Z,94827.16
2023-04-28T07:42:03.767Z,94828.16
2023-04-28T07:44:31.369Z,94831.38
2023-04-28T07:47:00.212Z,94832.84
2023-04-28T07:49:28.666Z,94843.31
2023-04-28T07:51:56.501Z,94843.31
2023-04-28T07:54:23.279Z,94837.03
2023-04-28T07:56:50.348Z,94831.66
2023-04-28T07:59:16.888Z,94842.50
2023-04-28T08:01:43.669Z,94832.50
2023-04-28T08:04:11.762Z,94832.19
2023-04-28T08:06:40.051Z,94832.03
2023-04-28T08:09:07.044Z,94827.00
2023-04-28T08:11:34.941Z,94830.25
2023-04-28T08:14:03.416Z,94826.19
2023-04-28T08:16:31.424Z,94824.25
2023-04-28T08:18:59.047Z,94817.31
2023-04-28T08:21:27.131Z,94820.69
2023-04-28T08:23:54.021Z,94823.44
2023-04-28T08:26:20.644Z,94820.19
2023-04-28T08:28:47.403Z,94818.94
2023-04-28T08:31:14.234Z,94823.16
2023-04-28T08:33:44.308Z,94814.56
2023-04-28T08:36:12.182Z,94815.53
2023-04-28T08:38:39.386Z,94810.84
2023-04-28T08:41:06.084Z,94804.13
2023-04-28T08:43:36.547Z,94805.91
2023-04-28T08:46:07.332Z,94807.31
2023-04-28T08:48:41.163Z,94805.25
2023-04-28T08:51:08.316Z,94811.41
2023-04-28T08:54:06.147Z,94802.97
2023-04-28T08:56:31.799Z,94799.56
2023-04-28T08:59:05.012Z,94806.22
2023-04-28T09:01:32.229Z,94814.59
2023-04-28T09:04:02.556Z,94817.63
2023-04-28T09:06:37.300Z,94814.44
2023-04-28T09:09:25.525Z,94816.19
2023-04-28T09:11:52.571Z,94808.72
2023-04-28T09:14:19.412Z,94810.66
2023-04-28T09:16:46.538Z,94815.78
2023-04-28T09:19:13.155Z,94816.28
2023-04-28T09:22:05.591Z,94815.47
2023-04-28T09:24:43.240Z,94822.59
2023-04-28T09:27:11.892Z,94814.97
2023-04-28T09:29:39.328Z,94810.72
2023-04-28T09:32:19.593Z,94808.34
2023-04-28T09:34:54.231Z,94800.75
2023-04-28T09:37:22.888Z,94799.81
2023-04-28T09:39:51.892Z,94798.78
2023-04-28T09:42:34.883Z,94802.34
2023-04-28T09:45:03.339Z,94797.00
2023-04-28T09:47:34.998Z,94790.16
2023-04-28T09:50:06.590Z,94794.88
2023-04-28T09:52:35.071Z,94796.91
2023-04-28T09:55:04.319Z,94790.81
2023-04-28T09:57:33.054Z,94787.56
2023-04-28T10:00:00.476Z,94803.25
2023-04-28T10:04:58.170Z,94796.13
2023-04-28T10:07:26.701Z,94798.75
2023-04-28T10:09:56.463Z,94797.91
2023-04-28T10:12:24.633Z,94802.00
2023-04-28T10:14:54.837Z,94793.75
2023-04-28T10:17:22.766Z,94791.13
2023-04-28T10:19:52.191Z,94803.88
2023-04-28T10:22:22.647Z,94805.34
2023-04-28T10:25:01.701Z,94791.31
2023-04-28T10:27:32.020Z,94800.84
2023-04-28T10:30:26.270Z,94804.09
2023-04-28T10:33:06.695Z,94795.91
2023-04-28T10:35:36.249Z,94798.84
2023-04-28T10:38:10.279Z,94796.44
2023-04-28T10:40:38.664Z,94798.41
2023-04-28T10:43:06.427Z,94794.72
2023-04-28T10:45:56.765Z,94791.00
2023-04-28T10:48:47.324Z,94784.53
2023-04-28T10:51:17.011Z,94777.94
2023-04-28T10:53:47.497Z,94784.06
2023-04-28T10:56:16.955Z,94788.91
2023-04-28T10:58:46.339Z,94782.31
2023-04-28T11:01:19.541Z,94787.75
2023-04-28T11:03:46.769Z,94778.09
2023-04-28T11:06:28.257Z,94789.25
2023-04-28T11:09:03.927Z,94788.78
2023-04-28T11:11:34.720Z,94792.63
2023-04-28T11:14:19.604Z,94790.53
2023-04-28T11:16:54.164Z,94795.66
2023-04-28T11:19:24.960Z,94797.13
2023-04-28T11:21:52.941Z,94798.41
2023-04-28T11:24:19.963Z,94805.66
2023-04-28T11:26:46.931Z,94799.22
2023-04-28T11:29:15.001Z,94807.16
2023-04-28T11:31:51.380Z,94806.34
2023-04-28T11:34:22.193Z,94801.66
2023-04-28T11:36:48.884Z,94805.56
2023-04-28T11:39:15.619Z,94803.97
2023-04-28T11:41:44.129Z,94805.91
2023-04-28T11:44:21.868Z,94813.66
2023-04-28T11:46:51.727Z,94801.03
2023-04-28T11:49:19.125Z,94805.09
2023-04-28T11:51:48.651Z,94798.78
2023-04-28T11:54:21.013Z,94808.97
2023-04-28T11:56:48.198Z,94806.50
2023-04-28T11:59:15.232Z,94795.31
2023-04-28T12:01:47.392Z,94806.00
2023-04-28T12:04:14.861Z,94806.47
2023-04-28T12:06:41.891Z,94811.34
2023-04-28T12:09:25.050Z,94807.97
2023-04-28T12:11:57.650Z,94796.66
2023-04-28T12:14:25.705Z,94802.03
2023-04-28T12:16:53.254Z,94806.69
2023-04-28T12:19:20.342Z,94817.03
2023-04-28T12:22:01.368Z,94809.78
2023-04-28T12:24:28.769Z,94817.19
2023-04-28T12:27:14.867Z,94816.38
2023-04-28T12:29:42.572Z,94822.72
2023-04-28T12:32:10.966Z,94828.31
2023-04-28T12:34:39.866Z,94828.00
2023-04-28T12:37:07.262Z,94835.31
2023-04-28T12:39:39.705Z,94831.91
2023-04-28T12:42:06.926Z,94843.38
2023-04-28T12:44:37.747Z,94839.81
2023-04-28T12:47:07.512Z,94837.84
2023-04-28T12:49:35.690Z,94838.19
2023-04-28T12:52:03.987Z,94833.09
2023-04-28T12:54:31.241Z,94842.31
2023-04-28T12:56:57.976Z,94835.16
2023-04-28T12:59:24.968Z,94834.00
2023-04-28T13:01:51.613Z,94829.31
2023-04-28T13:04:19.533Z,94832.81
2023-04-28T13:06:46.549Z,94827.88
2023-04-28T13:09:15.264Z,94829.94
2023-04-28T13:11:42.752Z,94835.63
2023-04-28T13:14:09.914Z,94834.13
2023-04-28T13:16:36.593Z,94823.47
2023-04-28T13:19:09.360Z,94830.09
2023-04-28T13:21:39.385Z,94823.88
2023-04-28T13:24:06.257Z,94826.03
2023-04-28T13:26:33.264Z,94818.34
2023-04-28T13:29:00.819Z,94813.97
2023-04-28T13:31:28.713Z,94812.88
2023-04-28T13:33:55.337Z,94809.66
2023-04-28T13:36:22.505Z,94803.75
2023-04-28T13:38:49.863Z,94812.56
2023-04-28T13:41:17.427Z,94816.56
2023-04-28T13:43:44.838Z,94802.66
2023-04-28T13:46:11.720Z,94802.66
2023-04-28T13:48:39.327Z,94805.66
2023-04-28T13:51:07.347Z,94803.81
2023-04-28T13:53:35.275Z,94801.94
2023-04-28T13:56:02.305Z,94793.19
2023-04-28T13:58:30.046Z,94802.28
2023-04-28T14:00:57.247Z,94797.69
2023-04-28T14:03:24.562Z,94788.16
2023-04-28T14:05:52.492Z,94790.56
2023-04-28T14:08:20.725Z,94788.78
2023-04-28T14:10:48.321Z,94786.09
2023-04-28T14:13:15.459Z,94778.41
2023-04-28T14:15:54.736Z,94778.94
2023-04-28T14:18:24.408Z,94785.38
2023-04-28T14:20:51.396Z,94779.72
2023-04-28T14:23:18.328Z,94777.25
2023-04-28T14:25:45.230Z,94775.47
2023-04-28T14:28:12.243Z,94777.75
2023-04-28T14:30:38.932Z,94778.22
2023-04-28T14:33:05.635Z,94766.13
2023-04-28T14:35:32.500Z,94773.28
2023-04-28T14:37:59.207Z,94765.19
2023-04-28T14:40:26.228Z,94757.41
2023-04-28T14:42:53.036Z,94762.00
2023-04-28T14:45:20.102Z,94762.84
2023-04-28T14:47:47.524Z,94763.28
2023-04-28T14:50:14.414Z,94766.31
2023-04-28T14:52:41.265Z,94768.19
2023-04-28T14:55:08.975Z,94760.50
2023-04-28T14:57:35.648Z,94760.50
2023-04-28T15:00:03.740Z,94767.19
2023-04-28T15:02:30.680Z,94763.81
2023-04-28T15:04:58.293Z,94759.13
2023-04-28T15:07:31.005Z,94755.22
2023-04-28T15:10:00.984Z,94753.47
2023-04-28T15:12:30.415Z,94761.78
2023-04-28T15:14:58.328Z,94754.53
2023-04-28T15:17:25.462Z,94758.78
2023-04-28T15:19:52.312Z,94756.72
2023-04-28T15:22:19.344Z,94765.28
2023-04-28T15:24:46.282Z,94766.53
2023-04-28T15:27:13.259Z,94767.41
2023-04-28T15:29:40.028Z,94759.34
2023-04-28T15:32:07.017Z,94757.41
2023-04-28T15:34:34.054Z,94752.84
2023-04-28T15:37:01.545Z,94743.22
2023-04-28T15:39:28.479Z,94739.16
2023-04-28T15:41:56.330Z,94735.59
2023-04-28T15:44:23.182Z,94736.50
2023-04-28T15:46:52.395Z,94735.47
2023-04-28T15:49:18.961Z,94731.63
2023-04-28T15:51:45.752Z,94734.03
2023-04-28T15:54:12.812Z,94736.19
2023-04-28T15:56:40.021Z,94737.50
2023-04-28T15:59:06.789Z,94733.63
2023-04-28T16:01:33.366Z,94736.81
2023-04-28T16:04:00.413Z,94724.47
2023-04-28T16:06:27.280Z,94731.00
2023-04-28T16:08:54.263Z,94728.00
2023-04-28T16:11:21.381Z,94722.81
2023-04-28T16:13:59.480Z,94715.41
2023-04-28T16:16:28.410Z,94710.66
2023-04-28T16:18:55.948Z,94714.56
2023-04-28T16:21:22.527Z,94715.91
2023-04-28T16:23:51.812Z,94731.81
2023-04-28T16:26:18.634Z,94726.00
2023-04-28T16:28:45.243Z,94730.09
2023-04-28T16:31:12.299Z,94725.44
2023-04-28T16:33:39.332Z,94722.91
2023-04-28T16:36:06.075Z,94722.47
2023-04-28T16:38:32.681Z,94720.41
2023-04-28T16:40:59.601Z,94709.59
2023-04-28T16:43:26.381Z,94697.78
2023-04-28T16:45:53.187Z,94701.97
2023-04-28T16:48:20.973Z,94694.72
2023-04-28T16:50:47.640Z,94692.16
2023-04-28T16:53:15.520Z,94688.94
2023-04-28T16:55:42.085Z,94692.47
2023-04-28T16:58:08.823Z,94691.03
2023-04-28T17:00:36.123Z,94687.00
2023-04-28T17:03:02.872Z,94677.16
2023-04-28T17:05:32.103Z,94670.38
2023-04-28T17:07:58.898Z,94660.97
2023-04-28T17:10:26.073Z,94661.81
2023-04-28T17:12:52.787Z,94656.16
2023-04-28T17:15:19.710Z,94664.72
2023-04-28T17:17:50.228Z,94687.84
2023-04-28T17:20:19.827Z,94688.00
2023-04-28T17:22:47.097Z,94698.25
2023-04-28T17:25:13.739Z,94700.69
2023-04-28T17:27:40.384Z,94694.75
2023-04-28T17:30:11.264Z,94689.09
2023-04-28T17:32:38.132Z,94684.59
2023-04-28T17:35:05.957Z,94697.84
2023-04-28T17:37:34.108Z,94699.66
2023-04-28T17:40:01.855Z,94700.41
2023-04-28T17:42:34.174Z,94700.75
2023-04-28T17:45:01.246Z,94700.94
2023-04-28T17:47:27.908Z,94704.13
2023-04-28T17:49:54.607Z,94714.66
2023-04-28T17:52:21.214Z,94735.34
2023-04-28T17:54:47.983Z,94729.78
2023-04-28T17:57:14.888Z,94709.91
2023-04-28T17:59:42.578Z,94698.16
2023-04-28T18:02:10.429Z,94697.22
2023-04-28T18:04:37.907Z,94693.81
2023-04-28T18:07:04.447Z,94698.97
2023-04-28T18:09:31.958Z,94693.03
2023-04-28T18:11:58.600Z,94713.34
2023-04-28T18:14:25.788Z,94720.28
2023-04-28T18:16:52.479Z,94707.38
2023-04-28T18:19:19.016Z,94709.47
2023-04-28T18:21:45.802Z,94726.13
2023-04-28T18:24:12.395Z,94734.53
2023-04-28T18:26:39.101Z,94721.44
2023-04-28T18:29:05.937Z,94756.63
2023-04-28T18:31:32.633Z,94742.25
2023-04-28T18:33:59.604Z,94734.34
2023-04-28T18:36:26.393Z,94731.28
2023-04-28T18:38:53.047Z,94742.56
2023-04-28T18:41:19.735Z,94734.16
2023-04-28T18:43:46.512Z,94740.63
2023-04-28T18:46:13.705Z,94741.28
2023-04-28T18:48:40.498Z,94758.06
2023-04-28T18:51:07.219Z,94764.03
2023-04-28T18:53:33.978Z,94755.97
2023-04-28T18:56:00.626Z,94776.28
2023-04-28T18:58:27.915Z,94785.34
2023-04-28T19:00:55.074Z,94791.31
2023-04-28T19:03:22.297Z,94797.28
2023-04-28T19:05:49.133Z,94799.22
2023-04-28T19:08:15.678Z,94798.25
2023-04-28T19:10:42.373Z,94794.88
2023-04-28T19:13:09.071Z,94803.91
2023-04-28T19:15:35.895Z,94826.66
2023-04-28T19:18:04.767Z,94833.28
2023-04-28T19:20:31.429Z,94841.66
2023-04-28T19:23:01.334Z,94852.00
2023-04-28T19:25:30.736Z,94852.03
2023-04-28T19:27:57.607Z,94864.44
2023-04-28T19:30:24.331Z,94856.38
2023-04-28T19:32:50.934Z,94862.03
2023-04-28T19:35:17.575Z,94877.19
2023-04-28T19:37:44.467Z,94883.31
2023-04-28T19:40:11.693Z,94867.47
2023-04-28T19:42:38.657Z,94867.41
2023-04-28T19:45:05.825Z,94868.22
2023-04-28T19:47:36.772Z,94874.69
2023-04-28T19:50:04.939Z,94882.53
2023-04-28T19:52:31.505Z,94870.56
2023-04-28T19:54:58.238Z,94869.13
2023-04-28T19:57:24.991Z,94855.53
2023-04-28T19:59:51.841Z,94855.81
2023-04-28T20:02:20.812Z,94875.50
2023-04-28T20:04:48.989Z,94863.06
2023-04-28T20:07:15.653Z,94861.91
2023-04-28T20:09:42.173Z,94854.31
2023-04-28T20:12:09.266Z,94854.31
2023-04-28T20:14:37.158Z,94856.41
2023-04-28T20:17:04.883Z,94854.00
2023-04-28T20:19:31.673Z,94854.47
2023-04-28T20:21:58.258Z,94858.97
2023-04-28T20:24:25.022Z,94868.69
2023-04-28T20:26:54.126Z,94867.06
2023-04-28T20:29:20.766Z,94871.13
2023-04-28T20:31:47.587Z,94868.47
2023-04-28T20:34:14.512Z,94872.69
2023-04-28T20:36:42.840Z,94868.19
2023-04-28T20:39:11.254Z,94850.25
2023-04-28T20:41:40.914Z,94850.44
2023-04-28T20:44:07.932Z,94856.25
2023-04-28T20:46:35.469Z,94859.94
2023-04-28T20:49:02.887Z,94866.22
2023-04-28T20:51:29.998Z,94852.66
2023-04-28T20:53:57.612Z,94854.84
2023-04-28T20:56:24.276Z,94850.59
2023-04-28T20:58:51.265Z,94858.63
2023-04-28T21:01:17.967Z,94861.34
2023-04-28T21:03:44.902Z,94862.38
2023-04-28T21:06:11.675Z,94867.22
2023-04-28T21:08:38.683Z,94873.03
2023-04-28T21:11:11.868Z,94871.38
2023-04-28T21:13:38.793Z,94878.47
2023-04-28T21:16:06.037Z,94870.06
2023-04-28T21:18:32.651Z,94878.06
2023-04-28T21:20:59.206Z,94870.25
2023-04-28T21:23:25.806Z,94868.81
2023-04-28T21:25:52.538Z,94864.44
2023-04-28T21:28:19.227Z,94861.50
2023-04-28T21:30:45.948Z,94858.94
2023-04-28T21:33:12.730Z,94848.28
2023-04-28T21:35:39.257Z,94860.56
2023-04-28T21:38:05.844Z,94848.91
2023-04-28T21:40:32.694Z,94849.84
2023-04-28T21:42:59.363Z,94854.16
2023-04-28T21:45:26.400Z,94854.19
2023-04-28T21:47:53.377Z,94845.09
2023-04-28T21:50:19.894Z,94857.84
2023-04-28T21:52:46.669Z,94856.88
2023-04-28T21:55:13.302Z,94864.09
2023-04-28T21:57:39.828Z,94859.81
2023-04-28T22:00:10.797Z,94860.41
2023-04-28T22:02:41.961Z,94856.53
2023-04-28T22:05:09.788Z,94850.19
2023-04-28T22:07:36.404Z,94861.78
2023-04-28T22:10:03.193Z,94849.44
2023-04-28T22:12:29.976Z,94842.81
2023-04-28T22:14:56.879Z,94837.66
2023-04-28T22:17:23.838Z,94838.97
2023-04-28T22:19:50.615Z,94830.72
2023-04-28T22:22:17.755Z,94826.84
2023-04-28T22:24:44.279Z,94816.25
2023-04-28T22:27:11.185Z,94812.50
2023-04-28T22:29:37.762Z,94802.13
2023-04-28T22:32:04.613Z,94796.47
2023-04-28T22:34:31.467Z,94798.91
2023-04-28T22:36:58.052Z,94798.91
2023-04-28T22:39:25.268Z,94798.91
2023-04-28T22:41:52.376Z,94803.56
2023-04-28T22:44:19.033Z,94792.06
2023-04-28T22:46:46.334Z,94788.03
2023-04-28T22:49:13.040Z,94781.78
2023-04-28T22:51:39.866Z,94784.19
2023-04-28T22:54:06.400Z,94776.41
2023-04-28T22:56:32.932Z,94798.94
2023-04-28T22:58:59.691Z,94798.28
2023-04-28T23:01:26.390Z,94800.50
2023-04-28T23:03:53.503Z,94801.44
2023-04-28T23:06:20.126Z,94798.75
2023-04-28T23:08:46.808Z,94800.13
2023-04-28T23:11:13.342Z,94802.06
2023-04-28T23:13:39.868Z,94801.63
2023-04-28T23:16:06.970Z,94801.19
2023-04-28T23:18:33.564Z,94800.75
2023-04-28T23:21:00.212Z,94782.56
2023-04-28T23:23:26.856Z,94776.25
2023-04-28T23:25:55.514Z,94768.66
2023-04-28T23:28:22.513Z,94763.28
2023-04-28T23:30:49.135Z,94758.56
2023-04-28T23:33:15.697Z,94762.78
2023-04-28T23:35:42.618Z,94754.09
2023-04-28T23:38:09.281Z,94753.56
2023-04-28T23:40:36.005Z,94756.66
2023-04-28T23:43:03.039Z,94766.19
2023-04-28T23:45:30.537Z,94754.91
2023-04-28T23:47:57.267Z,94757.31
2023-04-28T23:50:24.035Z,94753.97
2023-04-28T23:52:50.717Z,94756.06
2023-04-28T23:55:17.368Z,94751.41
2023-04-28T23:57:43.889Z,94746.78
